createdAt,value
2023-05-19T00:00:31.927Z,15.48
2023-05-19T00:03:00.655Z,15.50
2023-05-19T00:05:30.696Z,14.00
2023-05-19T00:07:59.154Z,13.40
2023-05-19T00:10:31.643Z,11.90
2023-05-19T00:13:00.586Z,12.40
2023-05-19T00:15:28.352Z,11.77
2023-05-19T00:17:56.018Z,11.07
2023-05-19T00:20:23.625Z,10.48
2023-05-19T00:22:51.648Z,11.13
2023-05-19T00:25:19.509Z,10.35
2023-05-19T00:27:47.065Z,11.40
2023-05-19T00:30:14.901Z,11.55
2023-05-19T00:32:42.493Z,12.68
2023-05-19T00:35:10.157Z,17.10
2023-05-19T00:37:37.934Z,15.02
2023-05-19T00:40:06.709Z,13.32
2023-05-19T00:42:35.000Z,14.82
2023-05-19T00:45:02.617Z,15.02
2023-05-19T00:47:31.139Z,14.20
2023-05-19T00:49:59.136Z,14.77
2023-05-19T00:52:27.638Z,13.40
2023-05-19T00:54:55.447Z,13.15
2023-05-19T00:57:23.089Z,12.68
2023-05-19T00:59:50.643Z,13.13
2023-05-19T01:02:18.279Z,11.80
2023-05-19T01:04:45.846Z,11.40
2023-05-19T01:07:18.801Z,10.13
2023-05-19T01:09:46.467Z,8.95
2023-05-19T01:12:14.110Z,9.57
2023-05-19T01:14:42.427Z,8.00
2023-05-19T01:17:30.315Z,8.93
2023-05-19T01:20:06.910Z,8.85
2023-05-19T01:22:43.522Z,9.20
2023-05-19T01:25:33.893Z,9.02
2023-05-19T01:28:10.388Z,9.20
2023-05-19T01:30:41.631Z,9.32
2023-05-19T01:33:11.751Z,8.82
2023-05-19T01:35:40.142Z,9.15
2023-05-19T01:38:09.090Z,9.70
2023-05-19T01:40:37.910Z,10.38
2023-05-19T01:43:05.551Z,10.32
2023-05-19T01:45:33.637Z,10.55
2023-05-19T01:48:02.779Z,10.40
2023-05-19T01:50:30.924Z,11.35
2023-05-19T01:52:58.662Z,11.02
2023-05-19T01:55:26.090Z,11.65
2023-05-19T01:58:31.293Z,13.82
2023-05-19T02:01:31.184Z,12.77
2023-05-19T02:04:04.849Z,12.80
2023-05-19T02:06:50.459Z,12.83
2023-05-19T02:09:39.944Z,13.30
2023-05-19T02:12:10.399Z,12.70
2023-05-19T02:14:46.517Z,13.05
2023-05-19T02:17:15.937Z,13.32
2023-05-19T02:19:43.714Z,12.95
2023-05-19T02:22:11.285Z,12.20
2023-05-19T02:24:39.521Z,12.57
2023-05-19T02:27:07.126Z,12.27
2023-05-19T02:29:34.838Z,11.00
2023-05-19T02:32:02.600Z,11.43
2023-05-19T02:34:30.706Z,12.55
2023-05-19T02:36:58.252Z,12.48
2023-05-19T02:39:26.489Z,12.88
2023-05-19T02:41:54.171Z,12.55
2023-05-19T02:44:21.909Z,12.95
2023-05-19T02:46:49.790Z,12.30
2023-05-19T02:49:17.425Z,13.48
2023-05-19T02:51:45.340Z,11.23
2023-05-19T02:54:12.954Z,12.05
2023-05-19T02:56:40.593Z,12.75
2023-05-19T02:59:08.142Z,13.10
2023-05-19T03:01:37.822Z,12.52
2023-05-19T03:04:05.637Z,12.20
2023-05-19T03:06:33.344Z,12.75
2023-05-19T03:09:01.191Z,14.20
2023-05-19T03:11:30.994Z,13.50
2023-05-19T03:13:58.650Z,13.95
2023-05-19T03:16:28.157Z,13.35
2023-05-19T03:18:56.003Z,13.98
2023-05-19T03:21:23.549Z,13.40
2023-05-19T03:23:51.357Z,12.73
2023-05-19T03:26:20.150Z,11.95
2023-05-19T03:28:47.696Z,11.38
2023-05-19T03:31:16.454Z,12.73
2023-05-19T03:33:44.223Z,10.80
2023-05-19T03:36:12.781Z,11.25
2023-05-19T03:38:40.636Z,10.50
2023-05-19T03:41:08.356Z,11.25
2023-05-19T03:43:36.290Z,10.70
2023-05-19T03:46:06.110Z,10.30
2023-05-19T03:48:52.355Z,8.43
2023-05-19T03:51:30.149Z,9.93
2023-05-19T03:54:06.116Z,10.05
2023-05-19T03:56:33.623Z,10.15
2023-05-19T03:59:01.148Z,9.98
2023-05-19T04:01:28.965Z,10.20
2023-05-19T04:03:58.257Z,10.23
2023-05-19T04:06:25.906Z,9.23
2023-05-19T04:08:54.951Z,10.25
2023-05-19T04:11:22.488Z,9.70
2023-05-19T04:13:50.062Z,10.48
2023-05-19T04:16:17.773Z,11.35
2023-05-19T04:18:46.530Z,10.77
2023-05-19T04:21:14.426Z,10.32
2023-05-19T04:23:41.999Z,10.98
2023-05-19T04:26:09.604Z,10.25
2023-05-19T04:28:40.087Z,9.52
2023-05-19T04:31:11.255Z,10.05
2023-05-19T04:33:39.434Z,9.02
2023-05-19T04:36:10.531Z,9.75
2023-05-19T04:38:40.488Z,9.30
2023-05-19T04:41:10.692Z,9.60
2023-05-19T04:43:44.547Z,10.18
2023-05-19T04:46:14.153Z,9.85
2023-05-19T04:48:44.086Z,10.23
2023-05-19T04:51:14.435Z,9.35
2023-05-19T04:53:42.663Z,9.02
2023-05-19T04:56:15.375Z,8.15
2023-05-19T04:58:44.833Z,9.18
2023-05-19T05:01:13.980Z,8.95
2023-05-19T05:03:42.415Z,10.52
2023-05-19T05:06:11.809Z,9.55
2023-05-19T05:08:41.261Z,9.32
2023-05-19T05:11:09.625Z,9.90
2023-05-19T05:13:37.723Z,10.00
2023-05-19T05:16:06.586Z,8.90
2023-05-19T05:18:35.169Z,8.65
2023-05-19T05:21:06.147Z,9.05
2023-05-19T05:23:35.585Z,9.45
2023-05-19T05:26:07.828Z,9.93
2023-05-19T05:28:35.493Z,8.27
2023-05-19T05:31:03.300Z,7.90
2023-05-19T05:33:32.429Z,7.35
2023-05-19T05:36:00.065Z,8.18
2023-05-19T05:38:29.930Z,8.23
2023-05-19T05:40:57.735Z,9.02
2023-05-19T05:43:25.857Z,7.45
2023-05-19T05:45:58.692Z,7.60
2023-05-19T05:48:26.880Z,6.22
2023-05-19T05:50:54.763Z,5.90
2023-05-19T05:53:26.374Z,6.20
2023-05-19T05:55:55.686Z,6.10
2023-05-19T05:58:28.704Z,5.57
2023-05-19T06:00:57.799Z,6.57
2023-05-19T06:03:26.864Z,6.82
2023-05-19T06:05:56.389Z,7.05
2023-05-19T06:08:23.842Z,6.65
2023-05-19T06:10:51.401Z,6.93
2023-05-19T06:13:22.678Z,7.25
2023-05-19T06:15:51.063Z,6.22
2023-05-19T06:20:53.414Z,5.47
2023-05-19T06:23:21.453Z,6.22
2023-05-19T06:25:49.173Z,6.20
2023-05-19T06:28:17.053Z,5.75
2023-05-19T06:30:45.345Z,5.53
2023-05-19T06:33:39.212Z,5.10
2023-05-19T06:36:08.522Z,5.18
2023-05-19T06:38:38.050Z,5.85
2023-05-19T06:41:05.780Z,5.68
2023-05-19T06:43:33.513Z,5.45
2023-05-19T06:46:03.975Z,5.45
2023-05-19T06:48:33.364Z,5.35
2023-05-19T06:51:00.997Z,5.22
2023-05-19T06:53:28.490Z,5.45
2023-05-19T06:55:59.976Z,5.13
2023-05-19T06:58:32.609Z,5.30
2023-05-19T07:01:02.562Z,5.82
2023-05-19T07:03:36.589Z,5.40
2023-05-19T07:06:05.640Z,5.68
2023-05-19T07:08:35.330Z,5.30
2023-05-19T07:11:04.141Z,5.60
2023-05-19T07:13:33.001Z,5.35
2023-05-19T07:16:00.626Z,5.57
2023-05-19T07:18:32.707Z,5.22
2023-05-19T07:21:00.224Z,5.32
2023-05-19T07:23:28.310Z,5.85
2023-05-19T07:25:56.736Z,5.38
2023-05-19T07:28:24.403Z,5.95
2023-05-19T07:30:52.063Z,6.35
2023-05-19T07:33:19.635Z,7.70
2023-05-19T07:35:47.673Z,5.93
2023-05-19T07:38:15.710Z,6.63
2023-05-19T07:40:43.146Z,5.93
2023-05-19T07:43:11.465Z,4.97
2023-05-19T07:45:39.015Z,4.35
2023-05-19T07:48:06.509Z,5.05
2023-05-19T07:50:34.289Z,5.55
2023-05-19T07:53:01.851Z,4.97
2023-05-19T07:55:29.386Z,5.35
2023-05-19T07:57:57.340Z,5.35
2023-05-19T08:00:25.422Z,5.43
2023-05-19T08:02:53.355Z,5.20
2023-05-19T08:05:20.919Z,5.20
2023-05-19T08:07:48.353Z,4.57
2023-05-19T08:10:16.427Z,4.30
2023-05-19T08:12:44.351Z,4.32
2023-05-19T08:15:11.864Z,4.30
2023-05-19T08:17:39.519Z,4.13
2023-05-19T08:20:09.011Z,4.18
2023-05-19T08:22:36.922Z,4.13
2023-05-19T08:25:07.715Z,3.95
2023-05-19T08:27:35.261Z,4.97
2023-05-19T08:30:02.681Z,4.05
2023-05-19T08:32:31.246Z,4.28
2023-05-19T08:34:58.719Z,9.55
2023-05-19T08:37:26.153Z,4.93
2023-05-19T08:39:53.556Z,4.10
2023-05-19T08:42:20.852Z,3.83
2023-05-19T08:44:48.251Z,3.38
2023-05-19T08:47:15.563Z,3.72
2023-05-19T08:49:47.067Z,3.38
2023-05-19T08:52:14.481Z,3.83
2023-05-19T08:54:45.937Z,3.75
2023-05-19T08:57:13.581Z,3.40
2023-05-19T08:59:41.561Z,3.17
2023-05-19T09:02:09.199Z,3.08
2023-05-19T09:04:37.127Z,3.08
2023-05-19T09:07:04.812Z,3.55
2023-05-19T09:09:33.116Z,3.55
2023-05-19T09:12:01.014Z,4.05
2023-05-19T09:14:29.366Z,4.03
2023-05-19T09:16:56.938Z,4.40
2023-05-19T09:19:24.490Z,4.22
2023-05-19T09:22:05.569Z,4.80
2023-05-19T09:24:34.203Z,4.35
2023-05-19T09:27:02.298Z,5.22
2023-05-19T09:29:29.916Z,4.97
2023-05-19T09:32:01.602Z,5.15
2023-05-19T09:34:29.492Z,5.22
2023-05-19T09:36:58.051Z,5.13
2023-05-19T09:39:25.980Z,5.75
2023-05-19T09:41:54.437Z,6.00
2023-05-19T09:44:29.805Z,5.90
2023-05-19T09:46:58.573Z,5.68
2023-05-19T09:49:29.733Z,5.72
2023-05-19T09:51:58.076Z,5.95
2023-05-19T09:54:27.553Z,5.65
2023-05-19T09:57:01.510Z,6.05
2023-05-19T09:59:32.308Z,6.30
2023-05-19T10:02:01.346Z,7.50
2023-05-19T10:04:29.802Z,7.15
2023-05-19T10:06:59.928Z,7.40
2023-05-19T10:09:29.077Z,7.32
2023-05-19T10:11:57.448Z,7.45
2023-05-19T10:14:26.014Z,7.00
2023-05-19T10:16:55.100Z,7.85
2023-05-19T10:19:27.671Z,7.15
2023-05-19T10:21:55.912Z,7.07
2023-05-19T10:24:23.370Z,6.97
2023-05-19T10:26:55.356Z,7.70
2023-05-19T10:29:28.288Z,7.82
2023-05-19T10:31:56.369Z,7.80
2023-05-19T10:34:50.396Z,8.43
2023-05-19T10:37:47.140Z,7.75
2023-05-19T10:40:33.960Z,8.00
2023-05-19T10:43:20.206Z,8.48
2023-05-19T10:45:54.526Z,8.75
2023-05-19T10:48:23.352Z,8.27
2023-05-19T10:50:55.122Z,8.57
2023-05-19T10:53:23.042Z,8.65
2023-05-19T10:55:56.183Z,8.20
2023-05-19T10:58:46.543Z,8.57
2023-05-19T11:01:14.614Z,9.18
2023-05-19T11:04:13.964Z,9.00
2023-05-19T11:06:41.920Z,9.13
2023-05-19T11:09:16.723Z,8.80
2023-05-19T11:11:48.156Z,8.00
2023-05-19T11:14:17.842Z,8.43
2023-05-19T11:16:49.200Z,8.32
2023-05-19T11:19:33.305Z,8.68
2023-05-19T11:22:11.430Z,9.13
2023-05-19T11:24:48.045Z,8.40
2023-05-19T11:27:25.635Z,9.20
2023-05-19T11:29:53.623Z,8.73
2023-05-19T11:32:22.401Z,8.70
2023-05-19T11:34:50.442Z,7.50
2023-05-19T11:37:18.010Z,7.80
2023-05-19T11:39:46.191Z,8.43
2023-05-19T11:42:13.887Z,7.68
2023-05-19T11:44:41.601Z,7.32
2023-05-19T11:47:09.306Z,9.00
2023-05-19T11:49:37.924Z,8.35
2023-05-19T11:52:05.912Z,8.05
2023-05-19T11:54:36.614Z,8.52
2023-05-19T11:57:04.391Z,7.97
2023-05-19T11:59:36.450Z,7.90
2023-05-19T12:02:15.285Z,7.30
2023-05-19T12:04:43.423Z,8.00
2023-05-19T12:07:12.404Z,7.97
2023-05-19T12:09:40.199Z,8.02
2023-05-19T12:12:08.071Z,7.60
2023-05-19T12:14:36.095Z,8.20
2023-05-19T12:17:13.827Z,7.85
2023-05-19T12:19:43.013Z,7.93
2023-05-19T12:22:10.615Z,7.90
2023-05-19T12:24:38.326Z,8.38
2023-05-19T12:27:10.045Z,8.25
2023-05-19T12:29:38.549Z,8.57
2023-05-19T12:32:09.495Z,7.70
2023-05-19T12:34:38.337Z,8.25
2023-05-19T12:37:06.073Z,8.05
2023-05-19T12:39:34.009Z,8.35
2023-05-19T12:42:03.354Z,8.15
2023-05-19T12:44:33.614Z,7.68
2023-05-19T12:47:01.945Z,7.90
2023-05-19T12:49:30.024Z,7.90
2023-05-19T12:51:59.547Z,7.78
2023-05-19T12:54:28.827Z,8.68
2023-05-19T12:56:57.802Z,8.80
2023-05-19T12:59:37.466Z,8.68
2023-05-19T13:02:06.718Z,8.32
2023-05-19T13:04:36.203Z,7.43
2023-05-19T13:07:04.758Z,7.50
2023-05-19T13:09:35.418Z,7.13
2023-05-19T13:12:04.853Z,7.90
2023-05-19T13:14:33.322Z,8.35
2023-05-19T13:17:02.163Z,8.10
2023-05-19T13:19:30.127Z,8.95
2023-05-19T13:21:58.806Z,8.63
2023-05-19T13:24:27.556Z,8.63
2023-05-19T13:26:56.004Z,9.27
2023-05-19T13:29:23.698Z,8.60
2023-05-19T13:31:51.605Z,10.40
2023-05-19T13:34:19.818Z,9.45
2023-05-19T13:36:48.977Z,9.98
2023-05-19T13:39:16.510Z,9.45
2023-05-19T13:41:44.056Z,9.35
2023-05-19T13:44:11.822Z,8.63
2023-05-19T13:46:45.187Z,9.27
2023-05-19T13:49:13.484Z,9.45
2023-05-19T13:51:42.904Z,8.85
2023-05-19T13:54:10.598Z,8.90
2023-05-19T13:56:38.177Z,9.68
2023-05-19T13:59:05.769Z,10.07
2023-05-19T14:01:33.460Z,9.15
2023-05-19T14:04:01.356Z,8.65
2023-05-19T14:06:29.277Z,8.65
2023-05-19T14:08:56.782Z,9.32
2023-05-19T14:11:24.676Z,9.15
2023-05-19T14:13:53.099Z,9.13
2023-05-19T14:16:22.223Z,9.18
2023-05-19T14:18:50.155Z,8.77
2023-05-19T14:21:17.982Z,8.30
2023-05-19T14:23:45.546Z,8.35
2023-05-19T14:26:13.413Z,8.82
2023-05-19T14:28:41.000Z,8.30
2023-05-19T14:31:15.008Z,8.35
2023-05-19T14:33:44.166Z,8.75
2023-05-19T14:36:11.674Z,9.82
2023-05-19T14:38:39.184Z,8.88
2023-05-19T14:41:07.158Z,9.30
2023-05-19T14:43:34.772Z,9.07
2023-05-19T14:46:04.542Z,8.93
2023-05-19T14:48:32.549Z,8.45
2023-05-19T14:51:00.205Z,8.18
2023-05-19T14:53:27.877Z,7.55
2023-05-19T14:55:55.457Z,9.82
2023-05-19T14:58:29.030Z,9.43
2023-05-19T15:01:00.154Z,9.18
2023-05-19T15:03:27.918Z,8.77
2023-05-19T15:05:55.675Z,9.35
2023-05-19T15:08:23.599Z,8.98
2023-05-19T15:10:51.808Z,9.13
2023-05-19T15:13:19.483Z,8.70
2023-05-19T15:15:47.259Z,8.70
2023-05-19T15:18:18.767Z,9.77
2023-05-19T15:20:46.642Z,8.70
2023-05-19T15:23:14.183Z,8.57
2023-05-19T15:25:41.669Z,8.63
2023-05-19T15:28:10.044Z,8.30
2023-05-19T15:30:38.196Z,8.95
2023-05-19T15:33:06.013Z,8.60
2023-05-19T15:35:33.794Z,8.75
2023-05-19T15:38:06.117Z,8.00
2023-05-19T15:40:34.112Z,8.05
2023-05-19T15:43:02.244Z,7.53
2023-05-19T15:45:30.040Z,8.65
2023-05-19T15:47:57.599Z,7.35
2023-05-19T15:50:26.494Z,7.00
2023-05-19T15:52:54.226Z,8.02
2023-05-19T15:55:21.756Z,8.05
2023-05-19T15:57:49.464Z,7.82
2023-05-19T16:00:17.054Z,7.57
2023-05-19T16:02:45.583Z,7.32
2023-05-19T16:05:13.584Z,7.82
2023-05-19T16:07:42.300Z,8.25
2023-05-19T16:10:10.031Z,7.90
2023-05-19T16:12:37.881Z,7.13
2023-05-19T16:15:05.908Z,8.30
2023-05-19T16:17:34.776Z,7.88
2023-05-19T16:20:02.399Z,7.97
2023-05-19T16:22:30.654Z,7.38
2023-05-19T16:24:58.158Z,7.63
2023-05-19T16:27:25.931Z,7.43
2023-05-19T16:29:53.478Z,8.20
2023-05-19T16:32:21.109Z,7.90
2023-05-19T16:34:48.974Z,9.52
2023-05-19T16:37:16.516Z,8.77
2023-05-19T16:39:44.210Z,8.57
2023-05-19T16:42:11.936Z,7.70
2023-05-19T16:44:39.442Z,8.98
2023-05-19T16:47:06.964Z,8.57
2023-05-19T16:49:34.918Z,7.68
2023-05-19T16:52:02.564Z,8.90
2023-05-19T16:54:30.212Z,8.23
2023-05-19T16:56:57.911Z,7.93
2023-05-19T16:59:25.613Z,8.57
2023-05-19T17:01:53.663Z,8.68
2023-05-19T17:04:21.277Z,8.88
2023-05-19T17:06:48.827Z,8.52
2023-05-19T17:09:16.301Z,7.95
2023-05-19T17:11:44.322Z,8.85
2023-05-19T17:14:11.858Z,7.97
2023-05-19T17:16:39.526Z,8.50
2023-05-19T17:19:07.137Z,8.93
2023-05-19T17:21:34.878Z,8.50
2023-05-19T17:24:02.611Z,7.90
2023-05-19T17:26:31.038Z,8.60
2023-05-19T17:29:00.169Z,9.10
2023-05-19T17:31:27.763Z,7.90
2023-05-19T17:33:55.604Z,8.05
2023-05-19T17:36:23.176Z,8.10
2023-05-19T17:38:50.911Z,8.73
2023-05-19T17:41:18.577Z,8.57
2023-05-19T17:43:46.071Z,8.07
2023-05-19T17:46:13.620Z,8.25
2023-05-19T17:48:41.384Z,7.57
2023-05-19T17:51:09.107Z,8.38
2023-05-19T17:53:37.468Z,7.72
2023-05-19T17:56:07.398Z,7.75
2023-05-19T17:58:36.188Z,7.65
2023-05-19T18:01:04.061Z,7.43
2023-05-19T18:03:32.173Z,7.75
2023-05-19T18:05:59.906Z,7.03
2023-05-19T18:08:27.549Z,7.93
2023-05-19T18:10:55.149Z,7.13
2023-05-19T18:13:23.730Z,7.65
2023-05-19T18:15:52.803Z,6.57
2023-05-19T18:18:20.846Z,7.47
2023-05-19T18:20:48.419Z,7.50
2023-05-19T18:23:16.301Z,7.60
2023-05-19T18:25:50.155Z,7.50
2023-05-19T18:28:17.680Z,7.30
2023-05-19T18:30:45.597Z,7.78
2023-05-19T18:33:13.556Z,6.95
2023-05-19T18:35:41.145Z,7.40
2023-05-19T18:38:08.697Z,7.43
2023-05-19T18:40:36.375Z,7.68
2023-05-19T18:43:04.080Z,8.43
2023-05-19T18:45:31.690Z,8.13
2023-05-19T18:47:59.485Z,7.00
2023-05-19T18:50:27.018Z,7.45
2023-05-19T18:52:54.889Z,7.80
2023-05-19T18:55:22.909Z,8.07
2023-05-19T18:57:51.465Z,8.25
2023-05-19T19:00:19.300Z,8.10
2023-05-19T19:02:47.180Z,8.68
2023-05-19T19:05:14.814Z,8.48
2023-05-19T19:07:44.820Z,8.10
2023-05-19T19:10:12.470Z,8.75
2023-05-19T19:12:40.373Z,8.25
2023-05-19T19:15:08.459Z,8.90
2023-05-19T19:17:36.551Z,8.23
2023-05-19T19:20:04.343Z,9.25
2023-05-19T19:22:32.452Z,8.07
2023-05-19T19:25:00.037Z,9.15
2023-05-19T19:27:31.065Z,8.77
2023-05-19T19:29:58.883Z,10.02
2023-05-19T19:32:26.515Z,9.50
2023-05-19T19:34:54.309Z,9.50
2023-05-19T19:37:21.894Z,9.27
2023-05-19T19:39:49.611Z,8.55
2023-05-19T19:42:17.314Z,8.98
2023-05-19T19:44:44.997Z,8.70
2023-05-19T19:47:12.976Z,9.20
2023-05-19T19:49:40.722Z,8.75
2023-05-19T19:52:08.431Z,9.63
2023-05-19T19:54:36.761Z,8.70
2023-05-19T19:57:04.514Z,8.68
2023-05-19T19:59:32.598Z,7.78
2023-05-19T20:02:01.398Z,9.23
2023-05-19T20:04:29.636Z,8.77
2023-05-19T20:06:57.217Z,9.25
2023-05-19T20:09:24.889Z,9.98
2023-05-19T20:11:52.463Z,9.50
2023-05-19T20:14:20.176Z,9.27
2023-05-19T20:16:47.931Z,9.13
2023-05-19T20:19:15.819Z,8.60
2023-05-19T20:21:43.506Z,8.73
2023-05-19T20:24:11.480Z,9.57
2023-05-19T20:26:39.059Z,8.80
2023-05-19T20:29:06.798Z,8.82
2023-05-19T20:31:34.602Z,8.15
2023-05-19T20:34:02.407Z,8.98
2023-05-19T20:36:30.276Z,8.88
2023-05-19T20:38:58.470Z,8.82
2023-05-19T20:41:26.049Z,8.38
2023-05-19T20:43:55.091Z,8.25
2023-05-19T20:46:22.930Z,8.85
2023-05-19T20:48:50.544Z,8.20
2023-05-19T20:51:18.083Z,8.93
2023-05-19T20:53:45.942Z,8.48
2023-05-19T20:56:14.049Z,8.27
2023-05-19T20:58:41.754Z,8.75
2023-05-19T21:01:09.367Z,8.05
2023-05-19T21:03:37.059Z,7.93
2023-05-19T21:06:04.789Z,8.55
2023-05-19T21:08:33.369Z,8.18
2023-05-19T21:11:00.974Z,8.38
2023-05-19T21:13:29.206Z,8.48
2023-05-19T21:15:57.510Z,7.82
2023-05-19T21:18:25.644Z,7.40
2023-05-19T21:20:53.339Z,7.88
2023-05-19T21:23:20.896Z,7.93
2023-05-19T21:25:50.080Z,7.47
2023-05-19T21:28:18.042Z,7.28
2023-05-19T21:30:48.349Z,7.32
2023-05-19T21:33:16.126Z,8.00
2023-05-19T21:35:45.420Z,7.55
2023-05-19T21:38:23.513Z,7.40
2023-05-19T21:40:52.648Z,7.22
2023-05-19T21:43:20.285Z,6.95
2023-05-19T21:45:48.022Z,7.60
2023-05-19T21:48:15.660Z,7.07
2023-05-19T21:50:43.252Z,6.63
2023-05-19T21:53:10.694Z,7.00
2023-05-19T21:55:39.289Z,7.18
2023-05-19T21:58:07.213Z,7.38
2023-05-19T22:00:36.763Z,7.00
2023-05-19T22:03:04.930Z,6.63
2023-05-19T22:05:35.448Z,6.40
2023-05-19T22:08:03.701Z,6.57
2023-05-19T22:10:32.037Z,6.68
2023-05-19T22:13:00.062Z,6.78
2023-05-19T22:15:27.614Z,7.32
2023-05-19T22:17:55.156Z,7.32
2023-05-19T22:20:22.600Z,7.13
2023-05-19T22:22:50.160Z,6.30
2023-05-19T22:25:17.625Z,7.20
2023-05-19T22:27:45.287Z,7.88
2023-05-19T22:30:12.692Z,7.82
2023-05-19T22:32:40.137Z,7.68
2023-05-19T22:35:08.938Z,8.18
2023-05-19T22:37:36.577Z,7.60
2023-05-19T22:40:04.488Z,7.50
2023-05-19T22:42:32.259Z,8.00
2023-05-19T22:44:59.698Z,6.75
2023-05-19T22:47:27.238Z,7.95
2023-05-19T22:49:55.618Z,7.90
2023-05-19T22:52:24.537Z,7.65
2023-05-19T22:54:51.971Z,7.82
2023-05-19T22:57:19.518Z,7.95
2023-05-19T22:59:46.966Z,8.10
2023-05-19T23:02:14.348Z,7.47
2023-05-19T23:04:41.770Z,8.68
2023-05-19T23:07:09.155Z,8.15
2023-05-19T23:09:36.745Z,7.70
2023-05-19T23:12:04.420Z,8.00
2023-05-19T23:14:32.321Z,8.43
2023-05-19T23:16:59.778Z,8.30
2023-05-19T23:19:28.548Z,8.32
2023-05-19T23:21:56.080Z,8.10
2023-05-19T23:24:23.519Z,9.27
2023-05-19T23:26:51.137Z,8.77
2023-05-19T23:29:18.677Z,8.85
2023-05-19T23:31:46.719Z,9.30
2023-05-19T23:34:14.202Z,9.13
2023-05-19T23:36:41.810Z,8.80
2023-05-19T23:39:09.376Z,9.68
2023-05-19T23:41:37.780Z,9.50
2023-05-19T23:44:05.420Z,10.32
2023-05-19T23:46:33.433Z,10.75
2023-05-19T23:49:01.032Z,11.05
2023-05-19T23:51:28.421Z,11.77
2023-05-19T23:53:55.842Z,12.32
2023-05-19T23:56:23.232Z,13.00
2023-05-19T23:58:50.800Z,13.32
